Time;durP1;ratioP1;P1;durP2;ratioP2;P2;SDS_P1;SDS_P2;PMS_P1;PMS_P2;Temp;Humidity;BMP_temperature;BMP_pressure;BME280_temperature;BME280_humidity;BME280_pressure;Samples;Min_cycle;Max_cycle;Signal;HPM_P1;HPM_P2
2022/06/09 00:00:23;;;;;;;1.25;0.77;;;;;;;;;;5118247;28;20488;-60
2022/06/09 00:02:54;;;;;;;0.80;0.60;;;;;;;;;;5117439;28;20199;-60
2022/06/09 00:05:23;;;;;;;0.90;0.75;;;;;;;;;;5126204;28;20289;-60
2022/06/09 00:07:50;;;;;;;0.88;0.65;;;;;;;;;;5138647;28;20217;-60
2022/06/09 00:10:20;;;;;;;0.60;0.60;;;;;;;;;;5138151;28;20199;-60
2022/06/09 00:12:47;;;;;;;0.70;0.70;;;;;;;;;;5120210;28;20624;-60
2022/06/09 00:15:15;;;;;;;1.08;0.68;;;;;;;;;;5112570;28;20206;-60
2022/06/09 00:17:44;;;;;;;0.95;0.73;;;;;;;;;;5138786;28;20225;-60
2022/06/09 00:20:16;;;;;;;0.82;0.70;;;;;;;;;;5124420;28;20203;-60
2022/06/09 00:22:44;;;;;;;0.80;0.70;;;;;;;;;;5117979;28;20211;-60
2022/06/09 00:25:11;;;;;;;1.20;0.70;;;;;;;;;;5118420;28;20226;-60
2022/06/09 00:27:38;;;;;;;1.38;0.77;;;;;;;;;;5117559;28;20198;-60
2022/06/09 00:30:07;;;;;;;0.70;0.70;;;;;;;;;;5118082;28;20214;-60
2022/06/09 00:32:35;;;;;;;1.23;0.80;;;;;;;;;;5132889;28;20209;-60
2022/06/09 00:35:02;;;;;;;0.50;0.50;;;;;;;;;;5138493;28;20214;-59
2022/06/09 00:37:31;;;;;;;1.15;0.70;;;;;;;;;;5138676;28;20593;-60
2022/06/09 00:39:59;;;;;;;0.70;0.63;;;;;;;;;;5138499;28;20202;-60
2022/06/09 00:42:27;;;;;;;1.25;0.60;;;;;;;;;;5138300;27;20230;-60
2022/06/09 00:44:54;;;;;;;0.80;0.63;;;;;;;;;;5138762;28;20209;-60
2022/06/09 00:47:24;;;;;;;0.80;0.60;;;;;;;;;;5138745;28;20209;-60
2022/06/09 00:49:57;;;;;;;1.15;0.70;;;;;;;;;;5119291;28;20203;-60
2022/06/09 00:52:25;;;;;;;1.35;0.80;;;;;;;;;;5117984;28;20581;-60
2022/06/09 00:54:57;;;;;;;0.60;0.60;;;;;;;;;;5118059;28;20199;-60
2022/06/09 00:57:27;;;;;;;1.17;0.75;;;;;;;;;;5117481;28;20227;-60
2022/06/09 00:59:56;;;;;;;2.22;0.77;;;;;;;;;;5117484;28;20199;-60
2022/06/09 01:02:24;;;;;;;1.15;0.77;;;;;;;;;;5117538;28;20243;-60
2022/06/09 01:04:53;;;;;;;1.05;0.70;;;;;;;;;;5116504;28;20206;-60
2022/06/09 01:07:21;;;;;;;1.85;0.80;;;;;;;;;;5117454;28;20206;-60
2022/06/09 01:09:49;;;;;;;2.45;0.73;;;;;;;;;;5117330;28;20199;-60
2022/06/09 01:12:26;;;;;;;4.60;0.70;;;;;;;;;;5117109;28;20207;-60
2022/06/09 01:14:59;;;;;;;1.05;0.80;;;;;;;;;;5120559;28;20205;-60
2022/06/09 01:17:29;;;;;;;1.48;0.70;;;;;;;;;;5120792;28;20617;-59
2022/06/09 01:20:09;;;;;;;2.40;0.75;;;;;;;;;;5121030;28;20468;-59
2022/06/09 01:22:51;;;;;;;2.38;0.80;;;;;;;;;;5121175;28;20203;-60
2022/06/09 01:25:33;;;;;;;2.47;0.88;;;;;;;;;;5118239;28;20538;-59
2022/06/09 01:28:27;;;;;;;2.00;0.82;;;;;;;;;;5120946;28;20191;-60
2022/06/09 01:30:58;;;;;;;1.15;0.70;;;;;;;;;;5073098;28;20213;-60
2022/06/09 01:33:30;;;;;;;1.63;0.70;;;;;;;;;;5119685;28;20195;-60
2022/06/09 01:36:02;;;;;;;1.75;0.88;;;;;;;;;;5120440;28;20259;-59
2022/06/09 01:38:29;;;;;;;0.80;0.80;;;;;;;;;;5120491;28;20194;-59
2022/06/09 01:40:57;;;;;;;0.93;0.80;;;;;;;;;;5120422;28;20234;-60
2022/06/09 01:43:24;;;;;;;2.03;0.80;;;;;;;;;;5117587;28;20249;-59
2022/06/09 01:45:56;;;;;;;0.80;0.70;;;;;;;;;;5120575;28;20291;-59
2022/06/09 01:48:27;;;;;;;0.70;0.60;;;;;;;;;;5119891;28;20209;-60
2022/06/09 01:50:56;;;;;;;1.27;0.70;;;;;;;;;;5120853;28;20605;-59
2022/06/09 01:53:27;;;;;;;1.40;0.60;;;;;;;;;;5120497;28;20578;-59
2022/06/09 01:55:58;;;;;;;0.93;0.70;;;;;;;;;;5120258;28;20564;-59
2022/06/09 01:58:27;;;;;;;0.70;0.70;;;;;;;;;;5120232;28;20219;-59
2022/06/09 02:00:56;;;;;;;0.68;0.55;;;;;;;;;;5119791;28;20218;-59
2022/06/09 02:03:27;;;;;;;0.93;0.80;;;;;;;;;;5119627;28;20209;-59
2022/06/09 02:05:58;;;;;;;1.05;0.90;;;;;;;;;;5120305;28;20567;-59
2022/06/09 02:08:25;;;;;;;1.15;0.70;;;;;;;;;;5119791;28;20285;-59
2022/06/09 02:10:55;;;;;;;1.05;0.50;;;;;;;;;;5118785;28;20199;-60
2022/06/09 02:13:23;;;;;;;0.77;0.65;;;;;;;;;;5119872;28;20479;-59
2022/06/09 02:15:53;;;;;;;0.80;0.80;;;;;;;;;;5119254;28;20195;-60
2022/06/09 02:18:22;;;;;;;0.57;0.57;;;;;;;;;;5118445;28;20229;-60
2022/06/09 02:20:52;;;;;;;0.93;0.63;;;;;;;;;;5119612;28;20203;-59
2022/06/09 02:23:19;;;;;;;0.80;0.60;;;;;;;;;;5119573;28;20213;-59
2022/06/09 02:25:46;;;;;;;1.17;0.60;;;;;;;;;;5118820;28;20206;-60
2022/06/09 02:28:14;;;;;;;0.70;0.70;;;;;;;;;;5102414;28;20201;-60
2022/06/09 02:30:42;;;;;;;1.27;0.65;;;;;;;;;;5118948;28;20213;-59
2022/06/09 02:33:10;;;;;;;0.60;0.60;;;;;;;;;;5118866;28;20203;-60
2022/06/09 02:35:37;;;;;;;0.82;0.50;;;;;;;;;;5105531;28;20547;-59
2022/06/09 02:38:06;;;;;;;0.70;0.63;;;;;;;;;;5119307;28;20215;-59
2022/06/09 02:40:34;;;;;;;0.80;0.80;;;;;;;;;;5118314;28;20199;-59
2022/06/09 02:43:01;;;;;;;0.85;0.70;;;;;;;;;;5129613;27;20547;-60
2022/06/09 02:45:29;;;;;;;0.80;0.60;;;;;;;;;;5119783;27;20531;-59
2022/06/09 02:47:57;;;;;;;0.70;0.70;;;;;;;;;;5127962;27;20252;-59
2022/06/09 02:50:25;;;;;;;0.68;0.50;;;;;;;;;;5130813;27;20198;-59
2022/06/09 02:52:52;;;;;;;1.10;0.70;;;;;;;;;;5139571;27;20221;-60
2022/06/09 02:55:21;;;;;;;0.50;0.50;;;;;;;;;;5139208;27;20198;-60
2022/06/09 02:57:49;;;;;;;0.50;0.50;;;;;;;;;;5139528;27;20613;-60
2022/06/09 03:00:16;;;;;;;0.80;0.70;;;;;;;;;;5139016;27;20210;-60
2022/06/09 03:02:44;;;;;;;1.05;0.70;;;;;;;;;;5139075;27;20216;-60
2022/06/09 03:05:12;;;;;;;0.52;0.50;;;;;;;;;;5137402;27;20595;-59
2022/06/09 03:07:39;;;;;;;0.52;0.52;;;;;;;;;;5138710;27;20206;-59
2022/06/09 03:10:07;;;;;;;0.63;0.50;;;;;;;;;;5127851;27;20205;-60
2022/06/09 03:12:36;;;;;;;0.57;0.57;;;;;;;;;;5150681;27;20604;-59
2022/06/09 03:15:07;;;;;;;0.52;0.52;;;;;;;;;;5153851;27;20202;-59
2022/06/09 03:17:35;;;;;;;0.73;0.60;;;;;;;;;;5139139;27;20227;-59
2022/06/09 03:20:02;;;;;;;0.60;0.60;;;;;;;;;;5139909;27;20266;-59
2022/06/09 03:22:32;;;;;;;0.57;0.57;;;;;;;;;;5139400;27;20202;-59
2022/06/09 03:25:00;;;;;;;0.82;0.60;;;;;;;;;;5138559;27;20285;-59
2022/06/09 03:27:27;;;;;;;0.50;0.50;;;;;;;;;;5146496;27;20193;-60
2022/06/09 03:29:56;;;;;;;0.70;0.70;;;;;;;;;;5159657;27;20212;-59
2022/06/09 03:32:23;;;;;;;0.73;0.60;;;;;;;;;;5160451;27;20201;-60
2022/06/09 03:34:51;;;;;;;0.65;0.60;;;;;;;;;;5159076;27;20827;-60
2022/06/09 03:37:18;;;;;;;0.80;0.70;;;;;;;;;;5157884;27;20674;-60
2022/06/09 03:39:46;;;;;;;0.55;0.55;;;;;;;;;;5159343;27;20528;-59
2022/06/09 03:42:15;;;;;;;1.70;0.60;;;;;;;;;;5159068;27;20237;-59
2022/06/09 03:44:43;;;;;;;0.90;0.80;;;;;;;;;;5159183;27;20223;-60
2022/06/09 03:47:12;;;;;;;0.68;0.60;;;;;;;;;;5158758;27;20198;-59
2022/06/09 03:49:39;;;;;;;0.65;0.60;;;;;;;;;;5147051;27;20198;-59
2022/06/09 03:52:07;;;;;;;0.75;0.70;;;;;;;;;;5137519;27;20285;-60
2022/06/09 03:54:34;;;;;;;1.13;0.60;;;;;;;;;;5137821;27;20232;-59
2022/06/09 03:57:02;;;;;;;0.75;0.70;;;;;;;;;;5137801;27;20578;-60
2022/06/09 03:59:29;;;;;;;0.80;0.60;;;;;;;;;;5137754;27;20198;-60
2022/06/09 04:01:56;;;;;;;0.73;0.60;;;;;;;;;;5137052;28;20195;-60
2022/06/09 04:04:25;;;;;;;0.85;0.60;;;;;;;;;;5135829;28;20198;-59
2022/06/09 04:06:53;;;;;;;0.80;0.60;;;;;;;;;;5137103;28;20202;-60
2022/06/09 04:09:21;;;;;;;0.50;0.50;;;;;;;;;;5128699;28;20243;-59
2022/06/09 04:11:48;;;;;;;0.90;0.60;;;;;;;;;;5118436;28;20487;-60
2022/06/09 04:14:16;;;;;;;0.43;0.43;;;;;;;;;;5136530;27;20206;-59
2022/06/09 04:16:44;;;;;;;0.70;0.70;;;;;;;;;;5136536;28;20190;-59
2022/06/09 04:19:13;;;;;;;0.60;0.60;;;;;;;;;;5136517;27;20616;-59
2022/06/09 04:21:42;;;;;;;1.02;0.63;;;;;;;;;;5118162;28;20285;-60
2022/06/09 04:24:09;;;;;;;0.60;0.50;;;;;;;;;;5135407;28;20305;-60
2022/06/09 04:26:37;;;;;;;0.80;0.80;;;;;;;;;;5137617;28;20198;-59
2022/06/09 04:29:06;;;;;;;1.35;0.65;;;;;;;;;;5136495;27;20243;-59
2022/06/09 04:31:33;;;;;;;1.25;0.70;;;;;;;;;;5136462;28;20202;-60
2022/06/09 04:34:01;;;;;;;0.60;0.60;;;;;;;;;;5126607;27;20209;-60
2022/06/09 04:36:28;;;;;;;0.68;0.68;;;;;;;;;;5119563;28;20210;-60
2022/06/09 04:38:57;;;;;;;1.17;0.75;;;;;;;;;;5135117;28;20218;-59
2022/06/09 04:41:24;;;;;;;0.50;0.50;;;;;;;;;;5134949;27;20203;-60
2022/06/09 04:43:52;;;;;;;0.85;0.60;;;;;;;;;;5135020;28;20255;-60
2022/06/09 04:46:21;;;;;;;0.73;0.68;;;;;;;;;;5136591;28;20202;-59
2022/06/09 04:48:48;;;;;;;0.60;0.60;;;;;;;;;;5137356;27;20562;-60
2022/06/09 04:51:17;;;;;;;0.70;0.52;;;;;;;;;;5138183;27;20198;-60
2022/06/09 04:53:45;;;;;;;0.82;0.60;;;;;;;;;;5130729;27;20213;-59
2022/06/09 04:56:15;;;;;;;0.55;0.55;;;;;;;;;;5138197;27;20201;-59
2022/06/09 04:58:42;;;;;;;0.50;0.50;;;;;;;;;;5137333;27;20628;-60
2022/06/09 05:01:16;;;;;;;0.60;0.60;;;;;;;;;;5138139;27;20241;-60
2022/06/09 05:03:44;;;;;;;0.70;0.70;;;;;;;;;;5136776;27;20212;-59
2022/06/09 05:06:11;;;;;;;1.00;0.70;;;;;;;;;;5136136;27;20720;-60
2022/06/09 05:08:40;;;;;;;1.30;0.70;;;;;;;;;;5135489;27;20209;-60
2022/06/09 05:11:09;;;;;;;0.73;0.73;;;;;;;;;;5135889;27;20198;-60
2022/06/09 05:13:39;;;;;;;0.77;0.60;;;;;;;;;;5134274;27;20206;-60
2022/06/09 05:16:08;;;;;;;0.55;0.55;;;;;;;;;;5115670;28;20199;-60
2022/06/09 05:18:37;;;;;;;0.65;0.65;;;;;;;;;;5115309;27;20524;-60
2022/06/09 05:21:05;;;;;;;0.60;0.60;;;;;;;;;;5132690;27;20357;-60
2022/06/09 05:23:33;;;;;;;0.70;0.70;;;;;;;;;;5134285;27;20202;-59
2022/06/09 05:26:01;;;;;;;0.60;0.60;;;;;;;;;;5135332;27;20204;-60
2022/06/09 05:28:30;;;;;;;0.77;0.60;;;;;;;;;;5135443;27;20577;-59
2022/06/09 05:30:59;;;;;;;0.60;0.60;;;;;;;;;;5135520;27;20190;-59
2022/06/09 05:33:26;;;;;;;0.57;0.57;;;;;;;;;;5134838;27;20194;-59
2022/06/09 05:35:54;;;;;;;0.85;0.60;;;;;;;;;;5135395;27;20379;-60
2022/06/09 05:46:37;;;;;;;0.63;0.60;;;;;;;;;;5114907;28;20247;-60
2022/06/09 05:49:05;;;;;;;0.73;0.63;;;;;;;;;;5115771;28;20206;-60
2022/06/09 05:51:32;;;;;;;0.60;0.60;;;;;;;;;;5115208;28;20434;-60
2022/06/09 05:54:00;;;;;;;0.80;0.60;;;;;;;;;;5114149;28;20523;-59
2022/06/09 05:56:27;;;;;;;0.95;0.80;;;;;;;;;;5115023;28;20675;-59
2022/06/09 05:58:56;;;;;;;0.50;0.50;;;;;;;;;;5113732;28;20222;-59
2022/06/09 06:01:23;;;;;;;0.70;0.70;;;;;;;;;;5113883;28;20506;-59
2022/06/09 06:03:52;;;;;;;0.60;0.60;;;;;;;;;;5115545;28;20203;-59
2022/06/09 06:06:35;;;;;;;0.60;0.50;;;;;;;;;;5115656;28;20203;-59
2022/06/09 06:09:03;;;;;;;1.30;0.63;;;;;;;;;;5115418;28;20388;-59
2022/06/09 06:11:30;;;;;;;0.68;0.68;;;;;;;;;;5114906;28;20195;-59
2022/06/09 06:13:57;;;;;;;0.60;0.60;;;;;;;;;;5115238;28;20191;-59
2022/06/09 06:16:25;;;;;;;0.50;0.50;;;;;;;;;;5114835;28;20210;-59
2022/06/09 06:18:54;;;;;;;0.60;0.57;;;;;;;;;;5114256;28;20238;-59
2022/06/09 06:21:21;;;;;;;0.40;0.40;;;;;;;;;;5113930;28;20357;-59
2022/06/09 06:23:49;;;;;;;0.70;0.70;;;;;;;;;;5114867;28;20339;-59
2022/06/09 06:26:17;;;;;;;0.60;0.60;;;;;;;;;;5115374;28;20648;-59
2022/06/09 06:28:44;;;;;;;0.52;0.50;;;;;;;;;;5116055;28;20199;-59
2022/06/09 06:31:12;;;;;;;0.60;0.60;;;;;;;;;;5114322;28;20210;-59
2022/06/09 06:33:39;;;;;;;0.52;0.52;;;;;;;;;;5114853;28;20187;-59
2022/06/09 06:36:09;;;;;;;0.52;0.52;;;;;;;;;;5114762;28;20554;-59
2022/06/09 06:38:37;;;;;;;1.20;0.55;;;;;;;;;;5114519;28;20231;-59
2022/06/09 06:41:05;;;;;;;1.30;0.65;;;;;;;;;;5115252;28;20195;-59
2022/06/09 06:43:33;;;;;;;2.50;0.70;;;;;;;;;;5130191;27;20238;-59
2022/06/09 06:46:00;;;;;;;0.68;0.60;;;;;;;;;;5115805;27;20205;-59
2022/06/09 06:48:28;;;;;;;1.10;0.60;;;;;;;;;;5094216;27;20605;-59
2022/06/09 06:50:56;;;;;;;0.60;0.60;;;;;;;;;;5114895;28;20199;-59
2022/06/09 06:53:24;;;;;;;0.60;0.60;;;;;;;;;;5121748;27;20209;-59
2022/06/09 06:55:52;;;;;;;0.88;0.60;;;;;;;;;;5135352;27;20620;-58
2022/06/09 06:58:19;;;;;;;0.80;0.60;;;;;;;;;;5137717;27;20279;-59
2022/06/09 07:00:47;;;;;;;0.85;0.60;;;;;;;;;;5137080;27;20198;-59
2022/06/09 07:03:14;;;;;;;1.02;0.50;;;;;;;;;;5136589;27;20194;-60
2022/06/09 07:05:42;;;;;;;0.93;0.70;;;;;;;;;;5135216;27;20194;-59
2022/06/09 07:08:09;;;;;;;0.70;0.70;;;;;;;;;;5135252;27;20281;-59
2022/06/09 07:10:38;;;;;;;0.82;0.60;;;;;;;;;;5123846;27;20206;-59
2022/06/09 07:13:06;;;;;;;0.80;0.60;;;;;;;;;;5134845;27;20202;-59
2022/06/09 07:15:34;;;;;;;0.60;0.60;;;;;;;;;;5118408;27;20213;-59
2022/06/09 07:18:01;;;;;;;0.70;0.70;;;;;;;;;;5114818;27;20291;-59
2022/06/09 07:20:29;;;;;;;2.72;1.38;;;;;;;;;;5115002;28;20226;-59
2022/06/09 07:22:57;;;;;;;1.42;1.27;;;;;;;;;;5114260;28;20233;-60
2022/06/09 07:25:25;;;;;;;1.65;0.93;;;;;;;;;;5133325;27;20225;-60
2022/06/09 07:27:54;;;;;;;2.03;1.10;;;;;;;;;;5135395;27;20206;-60
2022/06/09 07:30:23;;;;;;;1.80;0.90;;;;;;;;;;5135118;27;20569;-59
2022/06/09 07:32:50;;;;;;;1.20;1.00;;;;;;;;;;5134190;27;20193;-59
2022/06/09 07:35:19;;;;;;;1.77;1.10;;;;;;;;;;5131940;27;20254;-59
2022/06/09 07:37:46;;;;;;;1.52;1.00;;;;;;;;;;5133626;27;20202;-59
2022/06/09 07:40:14;;;;;;;1.88;1.10;;;;;;;;;;5134275;27;20492;-59
2022/06/09 07:42:42;;;;;;;1.02;0.90;;;;;;;;;;5133924;27;20234;-60
2022/06/09 07:45:12;;;;;;;2.67;1.10;;;;;;;;;;5108015;27;20203;-59
2022/06/09 07:47:40;;;;;;;2.13;1.25;;;;;;;;;;5125566;27;20202;-59
2022/06/09 07:50:09;;;;;;;1.33;1.10;;;;;;;;;;5133669;27;20477;-59
2022/06/09 07:52:36;;;;;;;2.20;1.20;;;;;;;;;;5133281;27;20534;-59
2022/06/09 07:55:04;;;;;;;2.95;1.20;;;;;;;;;;5134675;27;20190;-59
2022/06/09 07:57:32;;;;;;;1.25;1.15;;;;;;;;;;5134030;27;20210;-59
2022/06/09 08:00:02;;;;;;;1.90;1.33;;;;;;;;;;5133851;27;20229;-59
2022/06/09 08:02:31;;;;;;;1.52;1.20;;;;;;;;;;5134495;28;20577;-59
2022/06/09 08:04:58;;;;;;;1.45;1.20;;;;;;;;;;5117921;28;20195;-60
2022/06/09 08:07:26;;;;;;;1.52;1.33;;;;;;;;;;5116954;28;20194;-60
2022/06/09 08:09:54;;;;;;;2.53;1.40;;;;;;;;;;5133219;28;20596;-59
2022/06/09 08:12:21;;;;;;;1.60;1.33;;;;;;;;;;5133932;28;20384;-59
2022/06/09 08:14:49;;;;;;;2.25;1.20;;;;;;;;;;5134208;28;20194;-59
2022/06/09 08:17:16;;;;;;;1.35;1.25;;;;;;;;;;5132379;28;20477;-59
2022/06/09 08:19:47;;;;;;;1.83;1.27;;;;;;;;;;5133154;28;20226;-59
2022/06/09 08:22:15;;;;;;;2.42;1.33;;;;;;;;;;5128257;28;20195;-59
2022/06/09 08:24:42;;;;;;;1.50;1.30;;;;;;;;;;5116569;28;20206;-60
2022/06/09 08:27:10;;;;;;;1.70;1.40;;;;;;;;;;5131125;27;20205;-60
2022/06/09 08:29:38;;;;;;;1.38;1.17;;;;;;;;;;5138391;27;20186;-60
2022/06/09 08:32:05;;;;;;;1.38;1.15;;;;;;;;;;5138994;27;20230;-59
2022/06/09 08:34:33;;;;;;;1.65;1.30;;;;;;;;;;5135770;27;20191;-59
2022/06/09 08:37:02;;;;;;;2.08;1.25;;;;;;;;;;5139153;27;20202;-59
2022/06/09 08:39:30;;;;;;;1.75;1.30;;;;;;;;;;5138111;27;20230;-59
2022/06/09 08:42:03;;;;;;;1.33;1.23;;;;;;;;;;5138271;27;20202;-59
2022/06/09 08:44:36;;;;;;;2.65;1.50;;;;;;;;;;5121821;27;20210;-60
2022/06/09 08:47:07;;;;;;;1.70;1.10;;;;;;;;;;5119023;27;20242;-59
2022/06/09 08:49:41;;;;;;;2.20;1.48;;;;;;;;;;5130065;27;20197;-59
2022/06/09 08:52:17;;;;;;;2.22;1.40;;;;;;;;;;5139277;27;20208;-59
2022/06/09 08:54:45;;;;;;;1.98;1.38;;;;;;;;;;5138689;27;20202;-60
2022/06/09 08:57:15;;;;;;;1.52;1.40;;;;;;;;;;5138844;27;20198;-60
2022/06/09 08:59:44;;;;;;;1.42;1.30;;;;;;;;;;5110598;27;20284;-59
2022/06/09 09:02:26;;;;;;;1.50;1.17;;;;;;;;;;5118252;28;20594;-59
2022/06/09 09:04:59;;;;;;;2.10;1.42;;;;;;;;;;5133456;27;20201;-59
2022/06/09 09:07:31;;;;;;;2.35;1.30;;;;;;;;;;5138769;27;20198;-59
2022/06/09 09:10:01;;;;;;;1.98;1.40;;;;;;;;;;5124439;27;20587;-59
2022/06/09 09:12:34;;;;;;;1.40;1.30;;;;;;;;;;5123243;27;20194;-60
2022/06/09 09:15:05;;;;;;;1.55;1.40;;;;;;;;;;5136527;27;20204;-59
2022/06/09 09:17:38;;;;;;;1.80;1.40;;;;;;;;;;5139365;27;20600;-59
2022/06/09 09:20:12;;;;;;;1.92;1.40;;;;;;;;;;5138783;27;20564;-59
2022/06/09 09:22:46;;;;;;;1.77;1.42;;;;;;;;;;5138444;27;20255;-59
2022/06/09 09:25:21;;;;;;;1.52;1.42;;;;;;;;;;5132484;27;20196;-59
2022/06/09 09:27:50;;;;;;;1.98;1.40;;;;;;;;;;5123702;27;20224;-59
2022/06/09 09:30:19;;;;;;;1.73;1.55;;;;;;;;;;5137510;27;20202;-59
2022/06/09 09:32:48;;;;;;;2.10;1.63;;;;;;;;;;5137563;27;20195;-58
2022/06/09 09:35:17;;;;;;;1.50;1.40;;;;;;;;;;5137022;27;20214;-59
2022/06/09 09:37:47;;;;;;;1.48;1.38;;;;;;;;;;5137769;27;20202;-59
2022/06/09 09:40:18;;;;;;;1.95;1.52;;;;;;;;;;5137867;27;20222;-60
2022/06/09 09:42:46;;;;;;;1.75;1.50;;;;;;;;;;5136162;27;20222;-60
2022/06/09 09:45:18;;;;;;;1.88;1.63;;;;;;;;;;5117402;28;20219;-60
2022/06/09 09:47:48;;;;;;;1.92;1.60;;;;;;;;;;5117476;28;20665;-60
2022/06/09 09:50:22;;;;;;;1.65;1.55;;;;;;;;;;5116929;28;20226;-59
2022/06/09 09:52:57;;;;;;;1.85;1.65;;;;;;;;;;5116854;28;20210;-59
2022/06/09 09:55:27;;;;;;;1.52;1.42;;;;;;;;;;5117307;28;20210;-59
2022/06/09 09:58:09;;;;;;;2.53;1.55;;;;;;;;;;5117483;28;20199;-60
2022/06/09 10:00:37;;;;;;;1.70;1.60;;;;;;;;;;5114356;28;20230;-60
2022/06/09 10:08:46;;;;;;;2.55;1.50;;;;;;;;;;5116699;28;20194;-59
2022/06/09 10:14:05;;;;;;;2.40;1.70;;;;;;;;;;5117007;28;20613;-59
2022/06/09 10:16:34;;;;;;;1.67;1.52;;;;;;;;;;5115636;28;20199;-59
2022/06/09 10:19:03;;;;;;;1.90;1.73;;;;;;;;;;5115712;28;20191;-61
2022/06/09 10:21:47;;;;;;;3.45;1.65;;;;;;;;;;5116121;28;20211;-60
2022/06/09 10:24:18;;;;;;;3.30;2.00;;;;;;;;;;5116047;28;20191;-60
2022/06/09 10:26:47;;;;;;;2.40;1.83;;;;;;;;;;5116041;28;20191;-60
2022/06/09 10:29:23;;;;;;;4.30;2.00;;;;;;;;;;5115920;28;20195;-61
2022/06/09 10:31:55;;;;;;;1.80;1.65;;;;;;;;;;5115172;28;20199;-60
2022/06/09 10:34:36;;;;;;;4.80;1.88;;;;;;;;;;5114497;28;20252;-60
2022/06/09 10:37:09;;;;;;;4.85;1.95;;;;;;;;;;5115359;28;20210;-60
2022/06/09 10:39:40;;;;;;;1.98;1.88;;;;;;;;;;5115407;28;20214;-60
2022/06/09 10:42:16;;;;;;;3.13;2.00;;;;;;;;;;5115976;27;20337;-59
2022/06/09 10:44:47;;;;;;;1.70;1.60;;;;;;;;;;5114299;28;20198;-60
2022/06/09 10:55:44;;;;;;;4.78;1.80;;;;;;;;;;5114805;28;20191;-60
2022/06/09 10:58:16;;;;;;;2.85;1.80;;;;;;;;;;5114619;28;20256;-61
2022/06/09 11:00:45;;;;;;;1.90;1.70;;;;;;;;;;5115397;28;20222;-61
2022/06/09 11:03:13;;;;;;;3.25;1.80;;;;;;;;;;5113792;28;20263;-61
2022/06/09 11:05:49;;;;;;;3.70;1.90;;;;;;;;;;5095225;28;20196;-61
2022/06/09 11:08:19;;;;;;;2.75;1.75;;;;;;;;;;5093976;28;20605;-60
2022/06/09 11:10:56;;;;;;;3.38;1.80;;;;;;;;;;5115049;28;20210;-60
2022/06/09 11:13:34;;;;;;;2.90;1.75;;;;;;;;;;5113861;28;20212;-60
2022/06/09 11:16:04;;;;;;;4.53;1.88;;;;;;;;;;5115047;28;20199;-60
2022/06/09 11:18:34;;;;;;;2.38;1.77;;;;;;;;;;5114837;28;20206;-60
2022/06/09 11:21:06;;;;;;;1.90;1.80;;;;;;;;;;5113320;28;20226;-60
2022/06/09 11:23:38;;;;;;;2.67;2.10;;;;;;;;;;5115377;28;20226;-60
2022/06/09 11:26:11;;;;;;;2.20;1.90;;;;;;;;;;5114541;28;20197;-60
2022/06/09 11:28:45;;;;;;;2.22;1.90;;;;;;;;;;5115138;28;20206;-60
2022/06/09 11:31:16;;;;;;;2.90;2.10;;;;;;;;;;5114023;28;20757;-60
2022/06/09 11:33:54;;;;;;;2.00;1.77;;;;;;;;;;5113632;28;20627;-60
2022/06/09 11:36:24;;;;;;;2.03;1.83;;;;;;;;;;5113538;28;20195;-60
2022/06/09 11:38:58;;;;;;;2.00;1.73;;;;;;;;;;5113328;28;20199;-60
2022/06/09 11:41:34;;;;;;;2.15;1.98;;;;;;;;;;5113174;28;20633;-60
2022/06/09 11:44:08;;;;;;;2.17;1.98;;;;;;;;;;5125015;27;20218;-60
2022/06/09 11:46:37;;;;;;;2.17;1.98;;;;;;;;;;5129046;27;20495;-60
2022/06/09 11:49:06;;;;;;;2.67;2.00;;;;;;;;;;5130244;27;20199;-60
2022/06/09 11:51:35;;;;;;;2.95;1.90;;;;;;;;;;5114004;27;20538;-60
2022/06/09 11:54:04;;;;;;;2.83;2.00;;;;;;;;;;5113933;28;20199;-60
2022/06/09 11:56:34;;;;;;;2.30;1.95;;;;;;;;;;5113325;28;20280;-60
2022/06/09 11:59:03;;;;;;;2.30;1.90;;;;;;;;;;5116573;27;20256;-60
2022/06/09 12:01:43;;;;;;;2.75;2.05;;;;;;;;;;5113451;28;20227;-60
2022/06/09 12:04:28;;;;;;;2.17;1.98;;;;;;;;;;5116761;27;20195;-61
2022/06/09 12:07:03;;;;;;;2.47;2.22;;;;;;;;;;5101142;28;20213;-60
2022/06/09 12:09:37;;;;;;;1.98;1.83;;;;;;;;;;5116978;28;20186;-60
2022/06/09 12:12:15;;;;;;;3.55;2.10;;;;;;;;;;5133755;28;20277;-60
2022/06/09 12:14:43;;;;;;;2.85;2.00;;;;;;;;;;5120442;28;20201;-60
2022/06/09 12:17:19;;;;;;;1.90;1.73;;;;;;;;;;5115392;28;20195;-60
2022/06/09 12:19:52;;;;;;;2.17;1.98;;;;;;;;;;5114471;28;20222;-60
2022/06/09 12:22:34;;;;;;;2.20;2.00;;;;;;;;;;5113900;28;20203;-60
2022/06/09 12:25:05;;;;;;;2.55;1.52;;;;;;;;;;5114012;28;20198;-60
2022/06/09 12:27:45;;;;;;;2.70;1.88;;;;;;;;;;5113883;28;20203;-60
2022/06/09 12:30:22;;;;;;;2.30;2.00;;;;;;;;;;5114516;28;20195;-60
2022/06/09 12:32:50;;;;;;;2.05;1.95;;;;;;;;;;5114016;28;20791;-60
2022/06/09 12:35:29;;;;;;;2.42;2.00;;;;;;;;;;5114068;28;20199;-61
2022/06/09 12:38:01;;;;;;;2.47;1.83;;;;;;;;;;5111898;28;20250;-60
2022/06/09 12:40:33;;;;;;;2.55;1.90;;;;;;;;;;5129849;28;20210;-60
2022/06/09 12:43:04;;;;;;;2.38;1.70;;;;;;;;;;5132051;28;20407;-60
2022/06/09 12:45:34;;;;;;;2.30;2.00;;;;;;;;;;5110226;28;20202;-60
2022/06/09 12:48:02;;;;;;;1.80;1.70;;;;;;;;;;5131932;28;20202;-60
2022/06/09 12:50:35;;;;;;;2.35;1.70;;;;;;;;;;5131129;28;20199;-60
2022/06/09 12:53:04;;;;;;;2.25;2.05;;;;;;;;;;5090531;28;20342;-60
2022/06/09 12:55:33;;;;;;;2.13;1.80;;;;;;;;;;5111349;28;20206;-60
2022/06/09 12:58:07;;;;;;;2.13;1.80;;;;;;;;;;5112306;28;20487;-60
2022/06/09 13:00:35;;;;;;;2.00;1.80;;;;;;;;;;5111308;28;20457;-60
2022/06/09 13:03:14;;;;;;;1.67;1.58;;;;;;;;;;5119377;28;20191;-61
2022/06/09 13:05:42;;;;;;;2.00;1.80;;;;;;;;;;5122768;28;20437;-60
2022/06/09 13:08:15;;;;;;;1.90;1.80;;;;;;;;;;5131466;27;20202;-60
2022/06/09 13:10:44;;;;;;;2.10;1.90;;;;;;;;;;5098055;28;20187;-60
2022/06/09 13:13:18;;;;;;;2.35;2.00;;;;;;;;;;5115339;28;20505;-60
2022/06/09 13:15:48;;;;;;;1.75;1.65;;;;;;;;;;5115719;27;20296;-60
2022/06/09 13:18:17;;;;;;;1.80;1.70;;;;;;;;;;5112648;27;20235;-61
2022/06/09 13:20:48;;;;;;;1.95;1.80;;;;;;;;;;5132857;27;20303;-60
2022/06/09 13:23:16;;;;;;;1.77;1.67;;;;;;;;;;5135222;27;20212;-60
2022/06/09 13:25:47;;;;;;;1.90;1.65;;;;;;;;;;5133458;27;20302;-60
2022/06/09 13:28:31;;;;;;;2.10;1.90;;;;;;;;;;5133741;27;20787;-60
2022/06/09 13:30:59;;;;;;;1.80;1.70;;;;;;;;;;5133688;27;20711;-60
2022/06/09 13:33:28;;;;;;;1.98;1.88;;;;;;;;;;5135077;27;20511;-60
2022/06/09 13:36:08;;;;;;;1.70;1.60;;;;;;;;;;5127551;27;20289;-60
2022/06/09 13:38:37;;;;;;;1.98;1.80;;;;;;;;;;5114367;28;20639;-60
2022/06/09 13:41:09;;;;;;;2.38;1.90;;;;;;;;;;5114489;28;20253;-59
2022/06/09 13:43:40;;;;;;;1.88;1.67;;;;;;;;;;5118312;27;20226;-60
2022/06/09 13:46:14;;;;;;;3.53;2.00;;;;;;;;;;5106318;27;20195;-60
2022/06/09 13:48:44;;;;;;;2.20;2.00;;;;;;;;;;5134830;27;20501;-60
2022/06/09 13:51:19;;;;;;;1.95;1.85;;;;;;;;;;5134697;27;20472;-60
2022/06/09 13:53:49;;;;;;;1.83;1.73;;;;;;;;;;5135008;27;20483;-60
2022/06/09 13:56:17;;;;;;;2.13;1.92;;;;;;;;;;5134892;27;20213;-59
2022/06/09 13:58:47;;;;;;;2.63;1.98;;;;;;;;;;5134482;27;20190;-61
2022/06/09 14:01:14;;;;;;;1.83;1.73;;;;;;;;;;5135507;27;20352;-60
2022/06/09 14:03:46;;;;;;;2.70;1.90;;;;;;;;;;5129017;27;20480;-60
2022/06/09 14:06:14;;;;;;;2.70;2.00;;;;;;;;;;5120501;27;20193;-60
2022/06/09 14:08:45;;;;;;;2.00;1.90;;;;;;;;;;5133676;27;20263;-60
2022/06/09 14:11:16;;;;;;;2.28;2.05;;;;;;;;;;5133359;27;20212;-60
2022/06/09 14:13:44;;;;;;;1.95;1.85;;;;;;;;;;5133286;27;20190;-60
2022/06/09 14:16:16;;;;;;;1.98;1.80;;;;;;;;;;5131275;27;20369;-60
2022/06/09 14:18:45;;;;;;;2.17;2.00;;;;;;;;;;5129044;27;20201;-60
2022/06/09 14:21:13;;;;;;;2.00;1.90;;;;;;;;;;5114532;28;20226;-60
2022/06/09 14:23:42;;;;;;;1.77;1.67;;;;;;;;;;5117930;27;20226;-59
2022/06/09 14:26:20;;;;;;;1.85;1.75;;;;;;;;;;5133694;27;20205;-60
2022/06/09 14:28:48;;;;;;;1.88;1.70;;;;;;;;;;5133714;27;20194;-60
2022/06/09 14:31:17;;;;;;;2.22;1.90;;;;;;;;;;5132715;27;20191;-60
2022/06/09 14:33:45;;;;;;;1.90;1.80;;;;;;;;;;5129773;27;20187;-60
2022/06/09 14:36:13;;;;;;;2.20;2.00;;;;;;;;;;5113110;28;20596;-60
2022/06/09 14:38:42;;;;;;;1.90;1.80;;;;;;;;;;5122174;27;20411;-60
2022/06/09 14:41:09;;;;;;;2.40;2.00;;;;;;;;;;5113160;28;20218;-60
2022/06/09 14:43:37;;;;;;;1.90;1.80;;;;;;;;;;5126558;27;20222;-60
2022/06/09 14:46:04;;;;;;;1.98;1.88;;;;;;;;;;5112640;27;20195;-60
2022/06/09 14:48:33;;;;;;;1.95;1.85;;;;;;;;;;5134137;27;20478;-60
2022/06/09 14:51:00;;;;;;;1.95;1.80;;;;;;;;;;5132156;27;20202;-60
2022/06/09 14:53:28;;;;;;;2.13;2.03;;;;;;;;;;5133214;27;20201;-60
2022/06/09 14:55:55;;;;;;;1.90;1.80;;;;;;;;;;5133245;27;20460;-60
2022/06/09 14:58:24;;;;;;;2.05;1.95;;;;;;;;;;5131932;27;20221;-60
2022/06/09 15:00:51;;;;;;;2.00;1.90;;;;;;;;;;5132362;27;20245;-60
2022/06/09 15:03:20;;;;;;;2.47;2.28;;;;;;;;;;5131800;27;20190;-61
2022/06/09 15:05:49;;;;;;;1.92;1.83;;;;;;;;;;5131814;27;20209;-60
2022/06/09 15:08:17;;;;;;;2.30;2.10;;;;;;;;;;5121473;27;20195;-60
2022/06/09 15:10:49;;;;;;;2.00;1.90;;;;;;;;;;5131295;27;20195;-60
2022/06/09 15:13:17;;;;;;;2.00;1.80;;;;;;;;;;5131969;27;20198;-60
2022/06/09 15:15:46;;;;;;;2.03;1.92;;;;;;;;;;5127823;27;20206;-59
2022/06/09 15:18:16;;;;;;;2.03;1.83;;;;;;;;;;5102195;28;20203;-60
2022/06/09 15:20:44;;;;;;;2.83;2.10;;;;;;;;;;5132836;27;20232;-60
2022/06/09 15:23:14;;;;;;;2.72;2.15;;;;;;;;;;5133472;27;20198;-60